Terminal Aerodrome Forecast
Issued by NWS

Home | Current Version | Previous Version | Text Only | Print | Product List | Glossary On
Versions: 1 2 3 4 5 6 7 8 9 10 11 12 13 14
000
FTUS43 KDLH 271700
TAFHIB
TAF
KHIB 271728Z 2718/2818 VRB06KT P6SM SCT200
     FM280400 VRB03KT P6SM BKN120
     FM281000 34009KT P6SM -RA SCT030 BKN040=

USA.gov is the U.S. government's official web portal to all federal, state and local government web resources and services.